Brookland, Arkansas
Current Conditions -  °F | °C
As of 4:53 PM on Saturday 20 Dec 2014 (Local Time) from KJBR Reporting Station
Scattered Clouds Scattered Clouds  
Wind Chill: 39°   Ceiling: Unl
Heat Index: 42°   Visibility: 10mi
Dew Point: 36°   Wind: 5mph
Humidity: 79%   Direction: 80°E
Pressure: 30.24"   Gusts: NA
Location:  35.9°N, 90.58°W
Report Text: KJBR 202253Z AUTO 08004KT 10SM SCT050 06/02 A3024 RMK AO2 SLP241 T00560022
Loading
Personal Weather Stations






























Interactive Weather Map New forecast layout! Learn more

10-Day Weather Forecast

Advertisements
Track Severe Weather on mobile